createdAt,value
2023-01-17T00:04:10.284Z,79.38
2023-01-17T00:10:23.741Z,79.13
2023-01-17T00:16:26.215Z,78.67
2023-01-17T00:22:49.741Z,78.19
2023-01-17T00:28:52.255Z,77.76
2023-01-17T00:34:54.731Z,78.05
2023-01-17T00:41:06.215Z,77.72
2023-01-17T00:47:26.888Z,77.67
2023-01-17T00:53:47.057Z,77.72
2023-01-17T01:00:07.350Z,77.76
2023-01-17T01:06:28.357Z,77.89
2023-01-17T01:12:51.874Z,78.66
2023-01-17T01:19:12.545Z,78.21
2023-01-17T01:25:33.048Z,78.94
2023-01-17T01:31:55.521Z,79.00
2023-01-17T01:38:02.514Z,79.26
2023-01-17T01:44:57.830Z,79.11
2023-01-17T01:51:05.169Z,79.52
2023-01-17T01:57:14.632Z,79.63
2023-01-17T02:03:38.408Z,79.49
2023-01-17T02:09:45.647Z,79.85
2023-01-17T02:16:01.237Z,79.81
2023-01-17T02:22:13.671Z,79.37
2023-01-17T02:28:27.179Z,79.18
2023-01-17T02:34:56.768Z,79.56
2023-01-17T02:41:09.477Z,81.08
2023-01-17T02:47:32.234Z,80.83
2023-01-17T02:53:55.364Z,81.69
2023-01-17T03:00:04.847Z,81.18
2023-01-17T03:06:15.302Z,82.24
2023-01-17T03:12:17.790Z,82.00
2023-01-17T03:18:23.933Z,80.71
2023-01-17T03:24:33.651Z,79.97
2023-01-17T03:30:36.227Z,80.24
2023-01-17T03:36:40.592Z,80.10
2023-01-17T03:42:52.162Z,82.05
2023-01-17T03:48:56.648Z,81.47
2023-01-17T03:55:03.153Z,81.27
2023-01-17T04:01:05.665Z,81.19
2023-01-17T04:07:11.026Z,81.13
2023-01-17T04:13:14.500Z,84.14
2023-01-17T04:19:16.953Z,83.97
2023-01-17T04:25:19.434Z,83.19
2023-01-17T04:31:27.888Z,83.15
2023-01-17T04:37:30.354Z,83.79
2023-01-17T04:43:32.814Z,84.01
2023-01-17T04:49:35.265Z,83.65
2023-01-17T04:55:37.716Z,82.24
2023-01-17T05:01:43.253Z,82.07
2023-01-17T05:07:45.683Z,81.24
2023-01-17T05:13:49.141Z,84.55
2023-01-17T05:19:52.591Z,83.88
2023-01-17T05:25:56.634Z,83.81
2023-01-17T05:32:01.507Z,84.06
2023-01-17T05:38:03.949Z,84.97
2023-01-17T05:44:08.344Z,82.63
2023-01-17T05:50:12.585Z,84.91
2023-01-17T05:56:14.637Z,84.00
2023-01-17T06:02:16.344Z,83.74
2023-01-17T06:08:21.300Z,83.83
2023-01-17T06:14:23.831Z,84.77
2023-01-17T06:20:26.307Z,84.97
2023-01-17T06:26:28.766Z,84.61
2023-01-17T06:32:31.303Z,84.82
2023-01-17T06:38:35.879Z,84.07
2023-01-17T06:44:38.196Z,82.08
2023-01-17T06:50:40.733Z,82.45
2023-01-17T06:56:47.175Z,84.91
2023-01-17T07:02:50.636Z,83.14
2023-01-17T07:08:52.925Z,84.82
2023-01-17T07:14:54.668Z,84.65
2023-01-17T07:20:56.353Z,83.67
2023-01-17T07:26:58.494Z,83.47
2023-01-17T07:33:01.964Z,82.17
2023-01-17T07:39:06.370Z,83.31
2023-01-17T07:45:10.870Z,82.80
2023-01-17T07:51:15.349Z,82.25
2023-01-17T07:57:17.811Z,82.47
2023-01-17T08:03:20.311Z,81.87
2023-01-17T08:09:22.771Z,81.86
2023-01-17T08:15:28.229Z,81.90
2023-01-17T08:21:33.738Z,82.06
2023-01-17T08:27:36.304Z,81.19
2023-01-17T08:33:38.661Z,81.39
2023-01-17T08:39:41.153Z,81.79
2023-01-17T08:45:48.740Z,81.10
2023-01-17T08:51:56.154Z,80.27
2023-01-17T08:57:58.012Z,80.05
2023-01-17T09:04:00.089Z,78.67
2023-01-17T09:10:02.516Z,77.48
2023-01-17T09:16:05.976Z,77.11
2023-01-17T09:22:08.453Z,75.68
2023-01-17T09:28:18.458Z,75.33
2023-01-17T09:34:28.262Z,74.72
2023-01-17T09:40:30.859Z,75.68
2023-01-17T09:46:39.326Z,74.96
2023-01-17T09:52:41.756Z,73.73
2023-01-17T09:59:00.285Z,73.78
2023-01-17T10:05:36.904Z,73.28
2023-01-17T10:12:06.277Z,72.63
2023-01-17T10:18:44.035Z,70.72
2023-01-17T10:24:55.048Z,70.37
2023-01-17T10:31:13.138Z,70.55
2023-01-17T10:37:38.171Z,67.74
2023-01-17T10:43:53.091Z,67.73
2023-01-17T10:50:04.428Z,66.83
2023-01-17T10:56:10.220Z,65.08
2023-01-17T11:02:20.598Z,68.21
2023-01-17T11:08:23.075Z,68.85
2023-01-17T11:14:27.506Z,67.30
2023-01-17T11:20:44.026Z,68.56
2023-01-17T11:26:50.509Z,68.34
2023-01-17T11:32:56.402Z,68.17
2023-01-17T11:39:06.468Z,68.16
2023-01-17T11:45:32.017Z,68.65
2023-01-17T11:51:42.519Z,68.63
2023-01-17T11:57:51.052Z,69.22
2023-01-17T12:03:59.360Z,66.29
2023-01-17T12:10:25.034Z,65.08
2023-01-17T12:16:45.617Z,65.02
2023-01-17T12:23:16.163Z,65.10
2023-01-17T12:29:37.709Z,65.01
2023-01-17T12:35:52.185Z,66.62
2023-01-17T12:42:30.795Z,67.58
2023-01-17T12:48:38.250Z,67.24
2023-01-17T12:54:45.755Z,65.92
2023-01-17T13:00:57.345Z,64.71
2023-01-17T13:07:26.221Z,62.06
2023-01-17T13:13:33.371Z,61.70
2023-01-17T13:19:54.887Z,61.48
2023-01-17T13:26:00.415Z,63.01
2023-01-17T13:32:34.107Z,61.63
2023-01-17T13:39:30.706Z,62.36
2023-01-17T13:45:38.236Z,60.22
2023-01-17T13:52:06.926Z,60.56
2023-01-17T13:58:29.284Z,59.78
2023-01-17T14:05:11.604Z,61.36
2023-01-17T14:11:18.531Z,62.07
2023-01-17T14:17:23.865Z,60.78
2023-01-17T14:23:40.357Z,59.76
2023-01-17T14:29:48.497Z,60.12
2023-01-17T14:36:01.119Z,63.11
2023-01-17T14:42:03.833Z,63.83
2023-01-17T14:48:22.457Z,64.89
2023-01-17T14:54:27.841Z,65.80
2023-01-17T15:00:39.414Z,66.20
2023-01-17T15:06:46.334Z,66.28
2023-01-17T15:12:53.280Z,68.74
2023-01-17T15:19:00.761Z,70.21
2023-01-17T15:25:04.253Z,70.71
2023-01-17T15:31:16.905Z,68.66
2023-01-17T15:37:34.990Z,70.66
2023-01-17T15:43:38.717Z,70.25
2023-01-17T15:49:53.782Z,71.29
2023-01-17T15:55:56.661Z,71.33
2023-01-17T16:02:00.234Z,69.29
2023-01-17T16:08:02.588Z,69.42
2023-01-17T16:14:08.056Z,68.44
2023-01-17T16:20:21.492Z,69.97
2023-01-17T16:26:27.950Z,68.65
2023-01-17T16:32:30.526Z,69.54
2023-01-17T16:38:33.968Z,68.72
2023-01-17T16:44:38.462Z,70.46
2023-01-17T16:50:48.968Z,70.47
2023-01-17T16:56:51.415Z,71.88
2023-01-17T17:02:53.965Z,71.70
2023-01-17T17:08:57.354Z,71.77
2023-01-17T17:14:59.795Z,70.66
2023-01-17T17:21:02.412Z,69.43
2023-01-17T17:27:04.703Z,69.77
2023-01-17T17:33:07.175Z,69.15
2023-01-17T17:39:13.738Z,71.63
2023-01-17T17:45:16.138Z,72.83
2023-01-17T17:51:42.672Z,71.02
2023-01-17T17:57:47.162Z,71.26
2023-01-17T18:03:49.628Z,73.54
2023-01-17T18:09:52.100Z,72.90
2023-01-17T18:16:12.682Z,74.52
2023-01-17T18:22:15.113Z,72.56
2023-01-17T18:28:17.585Z,72.03
2023-01-17T18:34:28.093Z,72.22
2023-01-17T18:40:30.549Z,72.30
2023-01-17T18:46:34.040Z,71.65
2023-01-17T18:52:37.185Z,72.26
2023-01-17T18:58:44.982Z,72.77
2023-01-17T19:04:49.023Z,74.34
2023-01-17T19:10:51.933Z,75.18
2023-01-17T19:16:54.386Z,77.22
2023-01-17T19:22:58.778Z,76.00
2023-01-17T19:29:01.284Z,77.80
2023-01-17T19:35:04.163Z,77.42
2023-01-17T19:41:15.053Z,77.10
2023-01-17T19:47:17.751Z,78.57
2023-01-17T19:53:20.219Z,76.48
2023-01-17T19:59:23.748Z,76.23
2023-01-17T20:05:26.154Z,77.05
2023-01-17T20:11:29.613Z,76.75
2023-01-17T20:17:33.868Z,77.93
2023-01-17T20:23:39.518Z,77.09
2023-01-17T20:29:42.011Z,76.90
2023-01-17T20:35:44.462Z,77.55
2023-01-17T20:41:51.910Z,77.51
2023-01-17T20:47:55.769Z,78.53
2023-01-17T20:54:01.879Z,77.78
2023-01-17T21:00:05.321Z,77.30
2023-01-17T21:06:10.838Z,77.23
2023-01-17T21:12:15.322Z,77.75
2023-01-17T21:18:19.826Z,77.57
2023-01-17T21:24:22.624Z,77.71
2023-01-17T21:30:24.710Z,76.78
2023-01-17T21:36:30.153Z,75.34
2023-01-17T21:42:32.607Z,75.82
2023-01-17T21:48:34.478Z,75.43
2023-01-17T21:54:54.721Z,75.67
2023-01-17T22:01:08.162Z,77.44
2023-01-17T22:07:09.942Z,77.67
2023-01-17T22:13:17.060Z,76.70
2023-01-17T22:19:23.528Z,77.02
2023-01-17T22:25:26.015Z,78.09
2023-01-17T22:31:29.448Z,77.50
2023-01-17T22:37:31.901Z,77.98
2023-01-17T22:43:39.393Z,78.47
2023-01-17T22:49:41.835Z,79.19
2023-01-17T22:55:44.293Z,80.84
2023-01-17T23:01:46.744Z,80.79
2023-01-17T23:07:51.196Z,80.81
2023-01-17T23:13:53.670Z,80.44
2023-01-17T23:19:56.153Z,79.80
2023-01-17T23:26:03.535Z,78.25
2023-01-17T23:32:05.945Z,76.56
2023-01-17T23:38:26.267Z,75.34
2023-01-17T23:44:32.046Z,74.92
2023-01-17T23:50:33.898Z,75.45
2023-01-17T23:56:35.880Z,72.89
